Terminal Aerodrome Forecast
Issued by NWS

Home | Current Version | Previous Version | Text Only | Print | Product List | Glossary On
Versions: 1 2 3 4 5 6 7 8 9 10 11 12
000
FTUS45 KFGZ 222340
TAFPGA
TAF
KPGA 222340Z 2300/2324 24009G17KT P6SM SCT060 BKN120
      TEMPO 2300/2303 VRB15G25KT 5SM -TSRA BKN050CB
     FM230300 VRB05KT P6SM SCT070 BKN130
     FM231100 VRB06KT 6SM -SHRA BKN050 OVC080
     FM231800 22010KT P6SM BKN060
      TEMPO 2318/2322 5SM SHRA BKN050=

USA.gov is the U.S. government's official web portal to all federal, state and local government web resources and services.